sensor_id;sensor_type;location;lat;lon;timestamp;P1;durP1;ratioP1;P2;durP2;ratioP2
76063;SDS011;64762;52.006;8.424;2023-03-23T00:02:19;11.20;;;3.83;;
76063;SDS011;64762;52.006;8.424;2023-03-23T00:04:47;11.32;;;3.88;;
76063;SDS011;64762;52.006;8.424;2023-03-23T00:07:14;7.25;;;3.53;;
76063;SDS011;64762;52.006;8.424;2023-03-23T00:09:49;10.13;;;3.83;;
76063;SDS011;64762;52.006;8.424;2023-03-23T00:12:23;10.30;;;4.00;;
76063;SDS011;64762;52.006;8.424;2023-03-23T00:15:03;15.65;;;4.20;;
76063;SDS011;64762;52.006;8.424;2023-03-23T00:17:30;11.40;;;4.15;;
76063;SDS011;64762;52.006;8.424;2023-03-23T00:19:57;8.80;;;3.28;;
76063;SDS011;64762;52.006;8.424;2023-03-23T00:22:23;8.63;;;3.63;;
76063;SDS011;64762;52.006;8.424;2023-03-23T00:24:49;8.55;;;3.50;;
76063;SDS011;64762;52.006;8.424;2023-03-23T00:27:15;10.68;;;4.13;;
76063;SDS011;64762;52.006;8.424;2023-03-23T00:29:41;8.10;;;3.30;;
76063;SDS011;64762;52.006;8.424;2023-03-23T00:32:06;12.60;;;3.88;;
76063;SDS011;64762;52.006;8.424;2023-03-23T00:34:37;8.05;;;3.28;;
76063;SDS011;64762;52.006;8.424;2023-03-23T00:37:03;10.20;;;4.75;;
76063;SDS011;64762;52.006;8.424;2023-03-23T00:39:28;12.00;;;4.20;;
76063;SDS011;64762;52.006;8.424;2023-03-23T00:41:54;11.13;;;3.90;;
76063;SDS011;64762;52.006;8.424;2023-03-23T00:44:29;9.13;;;4.07;;
76063;SDS011;64762;52.006;8.424;2023-03-23T00:46:55;9.52;;;4.55;;
76063;SDS011;64762;52.006;8.424;2023-03-23T00:49:21;12.15;;;3.65;;
76063;SDS011;64762;52.006;8.424;2023-03-23T00:51:49;13.60;;;4.10;;
76063;SDS011;64762;52.006;8.424;2023-03-23T00:54:15;10.38;;;3.95;;
76063;SDS011;64762;52.006;8.424;2023-03-23T00:56:40;10.53;;;4.63;;
76063;SDS011;64762;52.006;8.424;2023-03-23T00:59:06;8.17;;;3.97;;
76063;SDS011;64762;52.006;8.424;2023-03-23T01:01:31;8.87;;;4.07;;
76063;SDS011;64762;52.006;8.424;2023-03-23T01:04:00;15.98;;;3.60;;
76063;SDS011;64762;52.006;8.424;2023-03-23T01:06:28;10.60;;;4.00;;
76063;SDS011;64762;52.006;8.424;2023-03-23T01:08:55;13.52;;;3.95;;
76063;SDS011;64762;52.006;8.424;2023-03-23T01:11:21;10.98;;;3.13;;
76063;SDS011;64762;52.006;8.424;2023-03-23T01:13:46;8.85;;;3.55;;
76063;SDS011;64762;52.006;8.424;2023-03-23T01:16:12;10.67;;;4.20;;
76063;SDS011;64762;52.006;8.424;2023-03-23T01:18:38;10.75;;;3.60;;
76063;SDS011;64762;52.006;8.424;2023-03-23T01:21:10;15.60;;;3.20;;
76063;SDS011;64762;52.006;8.424;2023-03-23T01:23:37;8.48;;;3.22;;
76063;SDS011;64762;52.006;8.424;2023-03-23T01:26:07;9.13;;;3.60;;
76063;SDS011;64762;52.006;8.424;2023-03-23T01:28:34;9.90;;;3.38;;
76063;SDS011;64762;52.006;8.424;2023-03-23T01:31:01;7.95;;;3.40;;
76063;SDS011;64762;52.006;8.424;2023-03-23T01:33:31;12.88;;;3.45;;
76063;SDS011;64762;52.006;8.424;2023-03-23T01:35:57;10.05;;;3.65;;
76063;SDS011;64762;52.006;8.424;2023-03-23T01:38:23;9.23;;;3.70;;
76063;SDS011;64762;52.006;8.424;2023-03-23T01:40:48;8.83;;;4.03;;
76063;SDS011;64762;52.006;8.424;2023-03-23T01:43:14;12.00;;;3.23;;
76063;SDS011;64762;52.006;8.424;2023-03-23T01:45:40;7.82;;;3.33;;
76063;SDS011;64762;52.006;8.424;2023-03-23T01:50:45;6.07;;;2.72;;
76063;SDS011;64762;52.006;8.424;2023-03-23T01:53:15;10.50;;;3.28;;
76063;SDS011;64762;52.006;8.424;2023-03-23T01:55:41;9.45;;;3.17;;
76063;SDS011;64762;52.006;8.424;2023-03-23T01:58:08;5.80;;;3.28;;
76063;SDS011;64762;52.006;8.424;2023-03-23T02:00:34;9.90;;;3.22;;
76063;SDS011;64762;52.006;8.424;2023-03-23T02:03:00;7.68;;;3.28;;
76063;SDS011;64762;52.006;8.424;2023-03-23T02:07:54;8.40;;;3.13;;
76063;SDS011;64762;52.006;8.424;2023-03-23T02:10:24;7.55;;;3.42;;
76063;SDS011;64762;52.006;8.424;2023-03-23T02:12:49;7.15;;;3.30;;
76063;SDS011;64762;52.006;8.424;2023-03-23T02:15:14;10.07;;;3.60;;
76063;SDS011;64762;52.006;8.424;2023-03-23T02:17:46;14.98;;;3.30;;
76063;SDS011;64762;52.006;8.424;2023-03-23T02:23:13;7.80;;;3.13;;
76063;SDS011;64762;52.006;8.424;2023-03-23T02:28:55;8.35;;;3.17;;
76063;SDS011;64762;52.006;8.424;2023-03-23T02:31:40;10.10;;;3.13;;
76063;SDS011;64762;52.006;8.424;2023-03-23T02:34:10;8.40;;;3.45;;
76063;SDS011;64762;52.006;8.424;2023-03-23T02:40:04;7.55;;;3.08;;
76063;SDS011;64762;52.006;8.424;2023-03-23T02:42:34;8.57;;;3.28;;
76063;SDS011;64762;52.006;8.424;2023-03-23T02:45:02;9.13;;;2.60;;
76063;SDS011;64762;52.006;8.424;2023-03-23T02:47:29;9.77;;;3.28;;
76063;SDS011;64762;52.006;8.424;2023-03-23T02:49:55;6.45;;;2.55;;
76063;SDS011;64762;52.006;8.424;2023-03-23T02:52:23;7.22;;;3.00;;
76063;SDS011;64762;52.006;8.424;2023-03-23T02:54:51;6.30;;;2.95;;
76063;SDS011;64762;52.006;8.424;2023-03-23T02:57:18;5.97;;;2.80;;
76063;SDS011;64762;52.006;8.424;2023-03-23T02:59:43;9.63;;;3.00;;
76063;SDS011;64762;52.006;8.424;2023-03-23T03:02:12;5.72;;;2.60;;
76063;SDS011;64762;52.006;8.424;2023-03-23T03:04:40;7.75;;;2.63;;
76063;SDS011;64762;52.006;8.424;2023-03-23T03:07:14;10.43;;;2.33;;
76063;SDS011;64762;52.006;8.424;2023-03-23T03:09:50;5.40;;;2.28;;
76063;SDS011;64762;52.006;8.424;2023-03-23T03:12:27;4.88;;;2.47;;
76063;SDS011;64762;52.006;8.424;2023-03-23T03:17:54;5.47;;;2.08;;
76063;SDS011;64762;52.006;8.424;2023-03-23T03:20:23;6.20;;;2.50;;
76063;SDS011;64762;52.006;8.424;2023-03-23T03:22:51;5.20;;;1.98;;
76063;SDS011;64762;52.006;8.424;2023-03-23T03:25:17;6.32;;;2.15;;
76063;SDS011;64762;52.006;8.424;2023-03-23T03:27:45;5.90;;;2.47;;
76063;SDS011;64762;52.006;8.424;2023-03-23T03:30:14;6.43;;;2.25;;
76063;SDS011;64762;52.006;8.424;2023-03-23T03:32:43;7.75;;;1.90;;
76063;SDS011;64762;52.006;8.424;2023-03-23T03:35:11;7.85;;;2.70;;
76063;SDS011;64762;52.006;8.424;2023-03-23T03:37:37;3.95;;;1.90;;
76063;SDS011;64762;52.006;8.424;2023-03-23T03:40:06;6.65;;;2.30;;
76063;SDS011;64762;52.006;8.424;2023-03-23T03:42:37;4.38;;;2.08;;
76063;SDS011;64762;52.006;8.424;2023-03-23T03:45:03;5.53;;;2.25;;
76063;SDS011;64762;52.006;8.424;2023-03-23T03:47:29;5.57;;;2.28;;
76063;SDS011;64762;52.006;8.424;2023-03-23T03:49:54;8.27;;;2.67;;
76063;SDS011;64762;52.006;8.424;2023-03-23T03:52:19;7.13;;;2.20;;
76063;SDS011;64762;52.006;8.424;2023-03-23T03:54:45;8.68;;;2.72;;
76063;SDS011;64762;52.006;8.424;2023-03-23T03:57:11;9.38;;;2.58;;
76063;SDS011;64762;52.006;8.424;2023-03-23T03:59:36;9.03;;;2.20;;
76063;SDS011;64762;52.006;8.424;2023-03-23T04:02:02;6.47;;;2.43;;
76063;SDS011;64762;52.006;8.424;2023-03-23T04:04:27;6.03;;;2.50;;
76063;SDS011;64762;52.006;8.424;2023-03-23T04:06:53;7.60;;;2.80;;
76063;SDS011;64762;52.006;8.424;2023-03-23T04:09:18;7.17;;;2.67;;
76063;SDS011;64762;52.006;8.424;2023-03-23T04:11:44;8.00;;;2.35;;
76063;SDS011;64762;52.006;8.424;2023-03-23T04:14:09;5.83;;;2.50;;
76063;SDS011;64762;52.006;8.424;2023-03-23T04:16:35;6.38;;;2.42;;
76063;SDS011;64762;52.006;8.424;2023-03-23T04:19:01;5.95;;;2.20;;
76063;SDS011;64762;52.006;8.424;2023-03-23T04:21:26;5.43;;;2.50;;
76063;SDS011;64762;52.006;8.424;2023-03-23T04:23:55;4.65;;;2.15;;
76063;SDS011;64762;52.006;8.424;2023-03-23T04:26:24;6.38;;;2.50;;
76063;SDS011;64762;52.006;8.424;2023-03-23T04:28:50;10.20;;;2.40;;
76063;SDS011;64762;52.006;8.424;2023-03-23T04:31:16;7.45;;;2.42;;
76063;SDS011;64762;52.006;8.424;2023-03-23T04:33:42;6.77;;;2.60;;
76063;SDS011;64762;52.006;8.424;2023-03-23T04:36:07;4.77;;;2.40;;
76063;SDS011;64762;52.006;8.424;2023-03-23T04:38:32;9.77;;;2.53;;
76063;SDS011;64762;52.006;8.424;2023-03-23T04:40:58;4.55;;;2.17;;
76063;SDS011;64762;52.006;8.424;2023-03-23T04:43:26;8.30;;;2.22;;
76063;SDS011;64762;52.006;8.424;2023-03-23T04:45:53;6.45;;;2.30;;
76063;SDS011;64762;52.006;8.424;2023-03-23T04:48:21;8.38;;;2.83;;
76063;SDS011;64762;52.006;8.424;2023-03-23T04:50:47;6.20;;;2.40;;
76063;SDS011;64762;52.006;8.424;2023-03-23T04:53:13;4.97;;;2.10;;
76063;SDS011;64762;52.006;8.424;2023-03-23T04:55:38;6.93;;;3.00;;
76063;SDS011;64762;52.006;8.424;2023-03-23T04:58:04;7.70;;;2.50;;
76063;SDS011;64762;52.006;8.424;2023-03-23T05:00:33;5.03;;;2.20;;
76063;SDS011;64762;52.006;8.424;2023-03-23T05:02:59;5.55;;;2.42;;
76063;SDS011;64762;52.006;8.424;2023-03-23T05:05:25;5.07;;;2.13;;
76063;SDS011;64762;52.006;8.424;2023-03-23T05:07:52;7.88;;;2.35;;
76063;SDS011;64762;52.006;8.424;2023-03-23T05:10:18;8.15;;;2.72;;
76063;SDS011;64762;52.006;8.424;2023-03-23T05:12:43;6.80;;;2.50;;
76063;SDS011;64762;52.006;8.424;2023-03-23T05:15:09;7.83;;;2.70;;
76063;SDS011;64762;52.006;8.424;2023-03-23T05:17:36;6.75;;;2.10;;
76063;SDS011;64762;52.006;8.424;2023-03-23T05:20:01;6.88;;;2.42;;
76063;SDS011;64762;52.006;8.424;2023-03-23T05:22:29;8.35;;;3.45;;
76063;SDS011;64762;52.006;8.424;2023-03-23T05:24:57;7.30;;;2.42;;
76063;SDS011;64762;52.006;8.424;2023-03-23T05:27:23;5.05;;;2.20;;
76063;SDS011;64762;52.006;8.424;2023-03-23T05:29:48;4.83;;;2.20;;
76063;SDS011;64762;52.006;8.424;2023-03-23T05:32:14;8.27;;;2.73;;
76063;SDS011;64762;52.006;8.424;2023-03-23T05:34:40;5.88;;;2.17;;
76063;SDS011;64762;52.006;8.424;2023-03-23T05:37:07;4.63;;;2.17;;
76063;SDS011;64762;52.006;8.424;2023-03-23T05:39:34;7.95;;;2.65;;
76063;SDS011;64762;52.006;8.424;2023-03-23T05:41:59;8.37;;;2.10;;
76063;SDS011;64762;52.006;8.424;2023-03-23T05:44:25;6.17;;;2.47;;
76063;SDS011;64762;52.006;8.424;2023-03-23T05:46:51;8.27;;;2.70;;
76063;SDS011;64762;52.006;8.424;2023-03-23T05:49:16;7.07;;;2.50;;
76063;SDS011;64762;52.006;8.424;2023-03-23T05:51:43;6.88;;;2.40;;
76063;SDS011;64762;52.006;8.424;2023-03-23T05:54:09;6.15;;;2.20;;
76063;SDS011;64762;52.006;8.424;2023-03-23T05:56:35;5.22;;;2.15;;
76063;SDS011;64762;52.006;8.424;2023-03-23T05:59:00;9.77;;;2.50;;
76063;SDS011;64762;52.006;8.424;2023-03-23T06:01:27;5.40;;;2.22;;
76063;SDS011;64762;52.006;8.424;2023-03-23T06:03:53;4.90;;;2.40;;
76063;SDS011;64762;52.006;8.424;2023-03-23T06:06:22;6.45;;;2.88;;
76063;SDS011;64762;52.006;8.424;2023-03-23T06:08:47;7.28;;;2.70;;
76063;SDS011;64762;52.006;8.424;2023-03-23T06:11:15;7.15;;;2.83;;
76063;SDS011;64762;52.006;8.424;2023-03-23T06:13:40;9.95;;;2.22;;
76063;SDS011;64762;52.006;8.424;2023-03-23T06:16:06;3.58;;;2.15;;
76063;SDS011;64762;52.006;8.424;2023-03-23T06:18:32;5.72;;;2.63;;
76063;SDS011;64762;52.006;8.424;2023-03-23T06:20:58;6.30;;;2.17;;
76063;SDS011;64762;52.006;8.424;2023-03-23T06:23:25;7.35;;;2.40;;
76063;SDS011;64762;52.006;8.424;2023-03-23T06:25:53;6.75;;;2.35;;
76063;SDS011;64762;52.006;8.424;2023-03-23T06:28:19;6.95;;;2.25;;
76063;SDS011;64762;52.006;8.424;2023-03-23T06:30:44;5.63;;;2.50;;
76063;SDS011;64762;52.006;8.424;2023-03-23T06:33:10;7.13;;;2.72;;
76063;SDS011;64762;52.006;8.424;2023-03-23T06:35:36;4.50;;;2.00;;
76063;SDS011;64762;52.006;8.424;2023-03-23T06:38:01;6.00;;;2.10;;
76063;SDS011;64762;52.006;8.424;2023-03-23T06:40:27;5.82;;;2.33;;
76063;SDS011;64762;52.006;8.424;2023-03-23T06:42:53;6.57;;;2.30;;
76063;SDS011;64762;52.006;8.424;2023-03-23T06:45:19;6.88;;;2.58;;
76063;SDS011;64762;52.006;8.424;2023-03-23T06:47:45;5.70;;;2.25;;
76063;SDS011;64762;52.006;8.424;2023-03-23T06:50:10;8.35;;;2.83;;
76063;SDS011;64762;52.006;8.424;2023-03-23T06:52:36;8.48;;;2.63;;
76063;SDS011;64762;52.006;8.424;2023-03-23T06:55:01;7.03;;;2.40;;
76063;SDS011;64762;52.006;8.424;2023-03-23T06:57:27;6.88;;;2.55;;
76063;SDS011;64762;52.006;8.424;2023-03-23T06:59:52;5.93;;;2.90;;
76063;SDS011;64762;52.006;8.424;2023-03-23T07:02:17;4.83;;;2.03;;
76063;SDS011;64762;52.006;8.424;2023-03-23T07:04:43;6.65;;;2.60;;
76063;SDS011;64762;52.006;8.424;2023-03-23T07:07:09;8.77;;;2.60;;
76063;SDS011;64762;52.006;8.424;2023-03-23T07:09:36;6.75;;;2.53;;
76063;SDS011;64762;52.006;8.424;2023-03-23T07:12:02;9.35;;;2.33;;
76063;SDS011;64762;52.006;8.424;2023-03-23T07:14:28;6.90;;;2.72;;
76063;SDS011;64762;52.006;8.424;2023-03-23T07:16:54;6.72;;;2.40;;
76063;SDS011;64762;52.006;8.424;2023-03-23T07:19:19;9.73;;;2.50;;
76063;SDS011;64762;52.006;8.424;2023-03-23T07:21:44;6.43;;;2.80;;
76063;SDS011;64762;52.006;8.424;2023-03-23T07:24:10;5.75;;;2.78;;
76063;SDS011;64762;52.006;8.424;2023-03-23T07:26:38;6.00;;;2.40;;
76063;SDS011;64762;52.006;8.424;2023-03-23T07:29:05;5.40;;;2.53;;
76063;SDS011;64762;52.006;8.424;2023-03-23T07:31:31;5.85;;;2.20;;
76063;SDS011;64762;52.006;8.424;2023-03-23T07:33:57;6.63;;;2.55;;
76063;SDS011;64762;52.006;8.424;2023-03-23T07:36:22;6.20;;;2.67;;
76063;SDS011;64762;52.006;8.424;2023-03-23T07:38:47;9.87;;;3.57;;
76063;SDS011;64762;52.006;8.424;2023-03-23T07:41:13;6.70;;;2.20;;
76063;SDS011;64762;52.006;8.424;2023-03-23T07:43:38;4.88;;;2.40;;
76063;SDS011;64762;52.006;8.424;2023-03-23T07:46:04;7.13;;;2.73;;
76063;SDS011;64762;52.006;8.424;2023-03-23T07:48:30;8.43;;;2.78;;
76063;SDS011;64762;52.006;8.424;2023-03-23T07:50:55;7.33;;;2.40;;
76063;SDS011;64762;52.006;8.424;2023-03-23T07:53:20;10.30;;;3.30;;
76063;SDS011;64762;52.006;8.424;2023-03-23T07:55:48;10.90;;;2.65;;
76063;SDS011;64762;52.006;8.424;2023-03-23T07:58:13;10.98;;;3.28;;
76063;SDS011;64762;52.006;8.424;2023-03-23T08:00:43;7.80;;;2.70;;
76063;SDS011;64762;52.006;8.424;2023-03-23T08:03:09;9.40;;;3.30;;
76063;SDS011;64762;52.006;8.424;2023-03-23T08:05:35;7.87;;;2.80;;
76063;SDS011;64762;52.006;8.424;2023-03-23T08:08:00;9.27;;;2.80;;
76063;SDS011;64762;52.006;8.424;2023-03-23T08:10:26;6.28;;;2.75;;
76063;SDS011;64762;52.006;8.424;2023-03-23T08:12:53;8.82;;;2.92;;
76063;SDS011;64762;52.006;8.424;2023-03-23T08:15:20;6.38;;;2.80;;
76063;SDS011;64762;52.006;8.424;2023-03-23T08:17:46;8.10;;;3.22;;
76063;SDS011;64762;52.006;8.424;2023-03-23T08:20:12;7.80;;;2.80;;
76063;SDS011;64762;52.006;8.424;2023-03-23T08:22:41;8.45;;;3.75;;
76063;SDS011;64762;52.006;8.424;2023-03-23T08:25:11;6.25;;;3.05;;
76063;SDS011;64762;52.006;8.424;2023-03-23T08:27:37;8.93;;;2.72;;
76063;SDS011;64762;52.006;8.424;2023-03-23T08:30:07;9.65;;;2.55;;
76063;SDS011;64762;52.006;8.424;2023-03-23T08:32:33;6.10;;;2.72;;
76063;SDS011;64762;52.006;8.424;2023-03-23T08:34:59;9.65;;;2.55;;
76063;SDS011;64762;52.006;8.424;2023-03-23T08:37:24;9.73;;;3.08;;
76063;SDS011;64762;52.006;8.424;2023-03-23T08:39:50;12.90;;;3.40;;
76063;SDS011;64762;52.006;8.424;2023-03-23T08:42:19;7.47;;;3.50;;
76063;SDS011;64762;52.006;8.424;2023-03-23T08:44:47;7.10;;;2.30;;
76063;SDS011;64762;52.006;8.424;2023-03-23T08:47:13;8.77;;;3.40;;
76063;SDS011;64762;52.006;8.424;2023-03-23T08:49:38;9.07;;;2.47;;
76063;SDS011;64762;52.006;8.424;2023-03-23T08:52:03;7.72;;;2.58;;
76063;SDS011;64762;52.006;8.424;2023-03-23T08:54:29;6.15;;;2.50;;
76063;SDS011;64762;52.006;8.424;2023-03-23T08:56:58;9.05;;;3.00;;
76063;SDS011;64762;52.006;8.424;2023-03-23T08:59:25;12.32;;;3.40;;
76063;SDS011;64762;52.006;8.424;2023-03-23T09:01:51;10.68;;;3.08;;
76063;SDS011;64762;52.006;8.424;2023-03-23T09:04:17;8.48;;;3.08;;
76063;SDS011;64762;52.006;8.424;2023-03-23T09:06:42;5.50;;;2.87;;
76063;SDS011;64762;52.006;8.424;2023-03-23T09:09:08;6.83;;;2.20;;
76063;SDS011;64762;52.006;8.424;2023-03-23T09:11:34;12.75;;;3.10;;
76063;SDS011;64762;52.006;8.424;2023-03-23T09:14:01;12.40;;;3.00;;
76063;SDS011;64762;52.006;8.424;2023-03-23T09:16:27;10.43;;;2.88;;
76063;SDS011;64762;52.006;8.424;2023-03-23T09:18:53;8.88;;;3.10;;
76063;SDS011;64762;52.006;8.424;2023-03-23T09:21:18;9.83;;;2.80;;
76063;SDS011;64762;52.006;8.424;2023-03-23T09:23:44;12.52;;;2.40;;
76063;SDS011;64762;52.006;8.424;2023-03-23T09:26:10;6.63;;;2.42;;
76063;SDS011;64762;52.006;8.424;2023-03-23T09:28:35;10.03;;;2.87;;
76063;SDS011;64762;52.006;8.424;2023-03-23T09:31:01;6.53;;;2.27;;
76063;SDS011;64762;52.006;8.424;2023-03-23T09:33:26;9.00;;;3.27;;
76063;SDS011;64762;52.006;8.424;2023-03-23T09:35:53;9.52;;;2.42;;
76063;SDS011;64762;52.006;8.424;2023-03-23T09:38:19;7.80;;;2.60;;
76063;SDS011;64762;52.006;8.424;2023-03-23T09:40:47;10.85;;;2.67;;
76063;SDS011;64762;52.006;8.424;2023-03-23T09:48:52;7.57;;;3.22;;
76063;SDS011;64762;52.006;8.424;2023-03-23T09:54:00;9.10;;;2.33;;
76063;SDS011;64762;52.006;8.424;2023-03-23T09:56:29;8.13;;;2.28;;
76063;SDS011;64762;52.006;8.424;2023-03-23T09:59:02;8.02;;;2.42;;
76063;SDS011;64762;52.006;8.424;2023-03-23T10:01:39;16.00;;;3.58;;
76063;SDS011;64762;52.006;8.424;2023-03-23T10:04:14;9.35;;;2.95;;
76063;SDS011;64762;52.006;8.424;2023-03-23T10:07:11;8.48;;;2.55;;
76063;SDS011;64762;52.006;8.424;2023-03-23T10:09:39;10.18;;;2.95;;
76063;SDS011;64762;52.006;8.424;2023-03-23T10:12:23;9.77;;;3.17;;
76063;SDS011;64762;52.006;8.424;2023-03-23T10:22:45;8.98;;;3.20;;
76063;SDS011;64762;52.006;8.424;2023-03-23T10:25:18;10.05;;;3.40;;
76063;SDS011;64762;52.006;8.424;2023-03-23T10:27:47;7.80;;;2.83;;
76063;SDS011;64762;52.006;8.424;2023-03-23T10:32:55;10.57;;;2.85;;
76063;SDS011;64762;52.006;8.424;2023-03-23T10:35:27;5.90;;;2.50;;
76063;SDS011;64762;52.006;8.424;2023-03-23T10:37:59;12.75;;;3.60;;
76063;SDS011;64762;52.006;8.424;2023-03-23T10:40:27;15.70;;;3.15;;
76063;SDS011;64762;52.006;8.424;2023-03-23T10:42:54;9.23;;;2.80;;
76063;SDS011;64762;52.006;8.424;2023-03-23T10:45:21;16.80;;;3.42;;
76063;SDS011;64762;52.006;8.424;2023-03-23T10:47:52;5.65;;;2.92;;
76063;SDS011;64762;52.006;8.424;2023-03-23T10:50:24;6.43;;;1.42;;
76063;SDS011;64762;52.006;8.424;2023-03-23T10:52:52;6.70;;;1.27;;
76063;SDS011;64762;52.006;8.424;2023-03-23T10:55:22;3.25;;;0.98;;
76063;SDS011;64762;52.006;8.424;2023-03-23T10:58:01;2.05;;;0.80;;
76063;SDS011;64762;52.006;8.424;2023-03-23T11:00:30;2.00;;;0.90;;
76063;SDS011;64762;52.006;8.424;2023-03-23T11:03:04;3.08;;;1.10;;
76063;SDS011;64762;52.006;8.424;2023-03-23T11:05:36;4.30;;;1.40;;
76063;SDS011;64762;52.006;8.424;2023-03-23T11:08:03;4.78;;;1.02;;
76063;SDS011;64762;52.006;8.424;2023-03-23T11:10:36;3.83;;;1.02;;
76063;SDS011;64762;52.006;8.424;2023-03-23T11:13:03;2.17;;;0.60;;
76063;SDS011;64762;52.006;8.424;2023-03-23T11:15:36;1.90;;;0.50;;
76063;SDS011;64762;52.006;8.424;2023-03-23T11:18:05;2.83;;;0.82;;
76063;SDS011;64762;52.006;8.424;2023-03-23T11:20:36;5.70;;;1.55;;
76063;SDS011;64762;52.006;8.424;2023-03-23T11:23:22;7.05;;;1.38;;
76063;SDS011;64762;52.006;8.424;2023-03-23T11:26:00;1.98;;;0.70;;
76063;SDS011;64762;52.006;8.424;2023-03-23T11:28:38;5.60;;;1.30;;
76063;SDS011;64762;52.006;8.424;2023-03-23T11:31:08;4.30;;;1.20;;
76063;SDS011;64762;52.006;8.424;2023-03-23T11:33:35;5.50;;;1.00;;
76063;SDS011;64762;52.006;8.424;2023-03-23T11:36:12;3.33;;;1.13;;
76063;SDS011;64762;52.006;8.424;2023-03-23T11:38:39;4.57;;;1.30;;
76063;SDS011;64762;52.006;8.424;2023-03-23T11:41:08;4.53;;;0.90;;
76063;SDS011;64762;52.006;8.424;2023-03-23T11:43:38;6.35;;;1.15;;
76063;SDS011;64762;52.006;8.424;2023-03-23T11:46:28;4.63;;;1.27;;
76063;SDS011;64762;52.006;8.424;2023-03-23T11:49:05;5.18;;;1.80;;
76063;SDS011;64762;52.006;8.424;2023-03-23T11:51:51;6.95;;;2.17;;
76063;SDS011;64762;52.006;8.424;2023-03-23T11:54:31;6.78;;;2.50;;
76063;SDS011;64762;52.006;8.424;2023-03-23T11:56:58;6.32;;;1.70;;
76063;SDS011;64762;52.006;8.424;2023-03-23T11:59:34;5.30;;;1.73;;
76063;SDS011;64762;52.006;8.424;2023-03-23T12:05:09;4.70;;;1.63;;
76063;SDS011;64762;52.006;8.424;2023-03-23T12:11:01;5.05;;;1.75;;
76063;SDS011;64762;52.006;8.424;2023-03-23T12:13:35;4.18;;;1.05;;
76063;SDS011;64762;52.006;8.424;2023-03-23T12:22:11;6.07;;;1.40;;
76063;SDS011;64762;52.006;8.424;2023-03-23T12:29:47;7.05;;;1.42;;
76063;SDS011;64762;52.006;8.424;2023-03-23T12:48:51;8.00;;;1.55;;
76063;SDS011;64762;52.006;8.424;2023-03-23T12:53:58;7.55;;;1.40;;
76063;SDS011;64762;52.006;8.424;2023-03-23T12:56:33;3.95;;;1.13;;
76063;SDS011;64762;52.006;8.424;2023-03-23T12:59:09;3.60;;;1.05;;
76063;SDS011;64762;52.006;8.424;2023-03-23T13:01:39;5.95;;;1.48;;
76063;SDS011;64762;52.006;8.424;2023-03-23T13:06:35;3.97;;;1.20;;
76063;SDS011;64762;52.006;8.424;2023-03-23T13:11:51;11.75;;;1.40;;
76063;SDS011;64762;52.006;8.424;2023-03-23T13:23:05;6.47;;;1.73;;
76063;SDS011;64762;52.006;8.424;2023-03-23T13:26:23;6.50;;;1.73;;
76063;SDS011;64762;52.006;8.424;2023-03-23T13:31:20;8.23;;;1.80;;
76063;SDS011;64762;52.006;8.424;2023-03-23T13:33:52;6.13;;;1.80;;
76063;SDS011;64762;52.006;8.424;2023-03-23T13:36:26;4.45;;;1.63;;
76063;SDS011;64762;52.006;8.424;2023-03-23T13:38:54;4.00;;;2.00;;
76063;SDS011;64762;52.006;8.424;2023-03-23T13:41:21;3.78;;;1.58;;
76063;SDS011;64762;52.006;8.424;2023-03-23T13:43:47;5.78;;;1.70;;
76063;SDS011;64762;52.006;8.424;2023-03-23T13:46:34;5.50;;;1.75;;
76063;SDS011;64762;52.006;8.424;2023-03-23T13:49:17;4.60;;;2.17;;
76063;SDS011;64762;52.006;8.424;2023-03-23T13:57:20;4.30;;;1.88;;
76063;SDS011;64762;52.006;8.424;2023-03-23T13:59:49;5.90;;;1.95;;
76063;SDS011;64762;52.006;8.424;2023-03-23T14:04:55;5.95;;;2.33;;
76063;SDS011;64762;52.006;8.424;2023-03-23T14:07:20;8.38;;;2.33;;
76063;SDS011;64762;52.006;8.424;2023-03-23T14:09:49;7.40;;;2.40;;
76063;SDS011;64762;52.006;8.424;2023-03-23T14:12:16;13.73;;;2.92;;
76063;SDS011;64762;52.006;8.424;2023-03-23T14:14:44;7.47;;;2.60;;
76063;SDS011;64762;52.006;8.424;2023-03-23T14:17:12;8.18;;;2.88;;
76063;SDS011;64762;52.006;8.424;2023-03-23T14:19:44;5.82;;;2.45;;
76063;SDS011;64762;52.006;8.424;2023-03-23T14:22:22;9.40;;;3.05;;
76063;SDS011;64762;52.006;8.424;2023-03-23T14:24:49;6.75;;;2.42;;
76063;SDS011;64762;52.006;8.424;2023-03-23T14:27:19;7.72;;;2.92;;
76063;SDS011;64762;52.006;8.424;2023-03-23T14:29:46;10.77;;;3.00;;
76063;SDS011;64762;52.006;8.424;2023-03-23T14:32:22;6.55;;;3.25;;
76063;SDS011;64762;52.006;8.424;2023-03-23T14:34:51;9.43;;;3.25;;
76063;SDS011;64762;52.006;8.424;2023-03-23T14:37:17;7.07;;;2.97;;
76063;SDS011;64762;52.006;8.424;2023-03-23T14:39:52;12.30;;;3.70;;
76063;SDS011;64762;52.006;8.424;2023-03-23T14:42:20;10.70;;;3.97;;
76063;SDS011;64762;52.006;8.424;2023-03-23T14:44:56;8.43;;;2.78;;
76063;SDS011;64762;52.006;8.424;2023-03-23T14:47:26;8.35;;;3.65;;
76063;SDS011;64762;52.006;8.424;2023-03-23T14:50:00;10.07;;;3.25;;
76063;SDS011;64762;52.006;8.424;2023-03-23T14:52:29;9.30;;;3.53;;
76063;SDS011;64762;52.006;8.424;2023-03-23T14:55:10;7.75;;;3.78;;
76063;SDS011;64762;52.006;8.424;2023-03-23T14:57:39;11.50;;;3.75;;
76063;SDS011;64762;52.006;8.424;2023-03-23T15:00:10;7.22;;;3.88;;
76063;SDS011;64762;52.006;8.424;2023-03-23T15:02:40;9.77;;;4.47;;
76063;SDS011;64762;52.006;8.424;2023-03-23T15:05:14;9.55;;;4.10;;
76063;SDS011;64762;52.006;8.424;2023-03-23T15:07:43;10.05;;;4.50;;
76063;SDS011;64762;52.006;8.424;2023-03-23T15:10:14;9.57;;;4.45;;
76063;SDS011;64762;52.006;8.424;2023-03-23T15:12:43;8.85;;;3.85;;
76063;SDS011;64762;52.006;8.424;2023-03-23T15:15:29;11.40;;;3.47;;
76063;SDS011;64762;52.006;8.424;2023-03-23T15:17:59;6.15;;;3.30;;
76063;SDS011;64762;52.006;8.424;2023-03-23T15:20:58;9.82;;;3.15;;
76063;SDS011;64762;52.006;8.424;2023-03-23T15:23:17;8.85;;;2.95;;
76063;SDS011;64762;52.006;8.424;2023-03-23T15:25:49;6.90;;;3.13;;
76063;SDS011;64762;52.006;8.424;2023-03-23T15:28:17;7.07;;;3.08;;
76063;SDS011;64762;52.006;8.424;2023-03-23T15:30:47;12.77;;;2.72;;
76063;SDS011;64762;52.006;8.424;2023-03-23T15:33:13;11.63;;;3.10;;
76063;SDS011;64762;52.006;8.424;2023-03-23T15:35:46;11.93;;;3.05;;
76063;SDS011;64762;52.006;8.424;2023-03-23T15:38:22;10.90;;;3.83;;
76063;SDS011;64762;52.006;8.424;2023-03-23T15:40:49;8.25;;;3.38;;
76063;SDS011;64762;52.006;8.424;2023-03-23T15:46:47;14.63;;;3.47;;
76063;SDS011;64762;52.006;8.424;2023-03-23T15:49:13;13.68;;;3.30;;
76063;SDS011;64762;52.006;8.424;2023-03-23T15:51:40;11.10;;;2.95;;
76063;SDS011;64762;52.006;8.424;2023-03-23T15:54:07;8.10;;;3.00;;
76063;SDS011;64762;52.006;8.424;2023-03-23T15:56:36;9.00;;;3.03;;
76063;SDS011;64762;52.006;8.424;2023-03-23T15:59:02;8.97;;;3.50;;
76063;SDS011;64762;52.006;8.424;2023-03-23T16:01:27;11.33;;;3.30;;
76063;SDS011;64762;52.006;8.424;2023-03-23T16:04:00;9.10;;;3.83;;
76063;SDS011;64762;52.006;8.424;2023-03-23T16:06:32;13.90;;;3.75;;
76063;SDS011;64762;52.006;8.424;2023-03-23T16:08:58;6.40;;;3.30;;
76063;SDS011;64762;52.006;8.424;2023-03-23T16:11:24;11.55;;;4.20;;
76063;SDS011;64762;52.006;8.424;2023-03-23T16:13:52;9.05;;;4.63;;
76063;SDS011;64762;52.006;8.424;2023-03-23T16:16:18;12.07;;;5.37;;
76063;SDS011;64762;52.006;8.424;2023-03-23T16:18:46;8.98;;;4.32;;
76063;SDS011;64762;52.006;8.424;2023-03-23T16:21:11;9.43;;;4.30;;
76063;SDS011;64762;52.006;8.424;2023-03-23T16:23:37;9.37;;;4.07;;
76063;SDS011;64762;52.006;8.424;2023-03-23T16:26:02;12.13;;;4.90;;
76063;SDS011;64762;52.006;8.424;2023-03-23T16:28:27;12.73;;;4.83;;
76063;SDS011;64762;52.006;8.424;2023-03-23T16:30:53;13.90;;;4.87;;
76063;SDS011;64762;52.006;8.424;2023-03-23T16:33:18;13.10;;;4.63;;
76063;SDS011;64762;52.006;8.424;2023-03-23T16:35:43;11.27;;;5.23;;